Time;durP1;ratioP1;P1;durP2;ratioP2;P2;SDS_P1;SDS_P2;PMS_P1;PMS_P2;Temp;Humidity;BMP_temperature;BMP_pressure;BME280_temperature;BME280_humidity;BME280_pressure;Samples;Min_cycle;Max_cycle;Signal;HPM_P1;HPM_P2
2023/10/30 00:01:48;;;;;;;11.65;2.20;;;12.30;99.90;;;;;;5092492;28;20172;-58
2023/10/30 00:04:14;;;;;;;5.57;2.40;;;12.30;99.90;;;;;;5091979;28;20165;-57
2023/10/30 00:06:40;;;;;;;10.18;2.20;;;12.30;99.90;;;;;;5091903;28;20166;-59
2023/10/30 00:09:06;;;;;;;7.70;2.00;;;12.20;99.90;;;;;;5091927;28;20197;-55
2023/10/30 00:11:31;;;;;;;8.30;2.20;;;12.20;99.90;;;;;;5090849;28;20173;-53
2023/10/30 00:13:57;;;;;;;7.55;2.15;;;12.20;99.90;;;;;;5091980;28;20212;-56
2023/10/30 00:16:22;;;;;;;6.13;1.88;;;12.10;99.90;;;;;;5092466;28;20161;-59
2023/10/30 00:18:49;;;;;;;8.52;1.90;;;12.10;99.90;;;;;;5090688;28;20591;-61
2023/10/30 00:21:15;;;;;;;7.28;2.20;;;12.10;99.90;;;;;;5092196;28;20541;-61
2023/10/30 00:23:40;;;;;;;5.35;2.33;;;12.10;99.90;;;;;;5091815;28;20625;-62
2023/10/30 00:26:07;;;;;;;6.70;2.05;;;12.00;99.90;;;;;;5091831;28;20176;-61
2023/10/30 00:28:34;;;;;;;9.73;2.35;;;12.00;99.90;;;;;;5092040;28;20173;-61
2023/10/30 00:31:00;;;;;;;6.93;1.85;;;12.00;99.90;;;;;;5092011;28;20252;-61
2023/10/30 00:33:26;;;;;;;6.55;2.00;;;12.00;99.90;;;;;;5092402;28;20262;-61
2023/10/30 00:35:51;;;;;;;9.48;2.63;;;12.00;99.90;;;;;;5092384;28;20623;-62
2023/10/30 00:38:17;;;;;;;7.05;2.13;;;12.00;99.90;;;;;;5091900;28;20166;-60
2023/10/30 00:40:43;;;;;;;11.40;2.05;;;12.00;99.90;;;;;;5091606;28;20215;-60
2023/10/30 00:43:08;;;;;;;9.38;1.92;;;12.00;99.90;;;;;;5091893;28;20170;-59
2023/10/30 00:45:34;;;;;;;5.80;1.95;;;12.10;99.90;;;;;;5091910;28;20531;-58
2023/10/30 00:47:59;;;;;;;10.45;2.30;;;12.10;99.90;;;;;;5091412;28;20568;-61
2023/10/30 00:50:25;;;;;;;6.05;2.00;;;12.10;99.90;;;;;;5091945;28;20169;-60
2023/10/30 00:52:51;;;;;;;10.30;2.05;;;12.10;99.90;;;;;;5091668;28;20189;-60
2023/10/30 00:55:16;;;;;;;8.15;2.00;;;12.10;99.90;;;;;;5091473;28;20173;-60
2023/10/30 00:57:42;;;;;;;5.32;1.88;;;12.10;99.90;;;;;;5091507;28;20161;-48
2023/10/30 01:00:08;;;;;;;10.13;2.63;;;12.10;99.90;;;;;;5091501;28;20173;-50
2023/10/30 01:02:34;;;;;;;9.25;2.10;;;12.20;99.90;;;;;;5091387;28;20199;-51
2023/10/30 01:04:59;;;;;;;7.38;2.00;;;12.20;99.90;;;;;;5090858;28;20173;-57
2023/10/30 01:07:25;;;;;;;10.35;2.28;;;12.10;99.90;;;;;;5091888;28;20196;-48
2023/10/30 01:09:50;;;;;;;7.65;2.22;;;12.20;99.90;;;;;;5091353;28;20169;-53
2023/10/30 01:12:16;;;;;;;7.32;1.90;;;12.20;99.90;;;;;;5091311;28;20644;-51
2023/10/30 01:14:41;;;;;;;10.65;1.90;;;12.30;99.90;;;;;;5091574;28;20205;-49
2023/10/30 01:17:08;;;;;;;11.13;2.97;;;12.30;99.90;;;;;;5091202;28;20201;-51
2023/10/30 01:19:33;;;;;;;6.45;2.42;;;12.30;99.90;;;;;;5091256;28;20173;-49
2023/10/30 01:21:59;;;;;;;10.75;2.42;;;12.30;99.90;;;;;;5093376;28;20241;-53
2023/10/30 01:24:25;;;;;;;9.15;2.63;;;12.30;99.90;;;;;;5095690;28;20590;-49
2023/10/30 01:26:50;;;;;;;7.63;2.10;;;12.30;99.90;;;;;;5094039;28;20165;-49
2023/10/30 01:29:16;;;;;;;7.63;2.72;;;12.30;99.90;;;;;;5093922;28;20694;-53
2023/10/30 01:31:42;;;;;;;10.02;3.10;;;12.20;99.90;;;;;;5095417;28;20528;-51
2023/10/30 01:34:07;;;;;;;9.25;2.70;;;12.20;99.90;;;;;;5095012;28;20201;-53
2023/10/30 01:36:33;;;;;;;12.00;2.80;;;12.20;99.90;;;;;;5095189;28;20172;-54
2023/10/30 01:38:58;;;;;;;9.60;3.20;;;12.20;99.90;;;;;;5093847;28;20169;-48
2023/10/30 01:41:24;;;;;;;9.30;2.45;;;12.20;99.90;;;;;;5095562;28;20176;-62
2023/10/30 01:43:50;;;;;;;11.10;2.50;;;12.30;99.90;;;;;;5094964;28;20252;-54
2023/10/30 01:46:16;;;;;;;10.23;2.78;;;12.30;99.90;;;;;;5094838;28;20248;-58
2023/10/30 01:48:41;;;;;;;10.32;3.47;;;12.30;99.90;;;;;;5094597;28;20224;-51
2023/10/30 01:51:08;;;;;;;15.18;3.45;;;12.40;99.90;;;;;;5094825;28;20173;-55
2023/10/30 01:53:34;;;;;;;13.35;2.83;;;12.40;99.90;;;;;;5094757;28;20236;-49
2023/10/30 01:56:03;;;;;;;12.93;3.03;;;12.40;99.90;;;;;;5094786;28;20165;-49
2023/10/30 01:58:29;;;;;;;13.35;3.30;;;12.40;99.90;;;;;;5094882;28;20222;-49
2023/10/30 02:00:57;;;;;;;8.98;2.97;;;12.40;99.90;;;;;;5095173;28;20158;-49
2023/10/30 02:03:22;;;;;;;19.23;3.15;;;12.50;99.90;;;;;;5095211;28;20169;-48
2023/10/30 02:05:48;;;;;;;13.00;3.50;;;12.50;99.90;;;;;;5094512;28;20174;-50
2023/10/30 02:08:15;;;;;;;13.23;3.75;;;12.50;99.90;;;;;;5094549;28;20243;-50
2023/10/30 02:10:41;;;;;;;12.02;3.72;;;12.40;99.90;;;;;;5094392;28;20219;-48
2023/10/30 02:13:07;;;;;;;19.15;4.40;;;12.50;99.90;;;;;;5094350;28;20201;-49
2023/10/30 02:15:33;;;;;;;12.60;3.58;;;12.30;99.90;;;;;;5094296;28;20177;-49
2023/10/30 02:17:58;;;;;;;10.85;3.42;;;12.30;99.90;;;;;;5094194;28;20245;-49
2023/10/30 02:20:24;;;;;;;10.30;2.85;;;12.20;99.90;;;;;;5094912;28;20165;-48
2023/10/30 02:22:50;;;;;;;15.63;3.08;;;12.20;99.90;;;;;;5094104;28;20240;-48
2023/10/30 02:25:20;;;;;;;10.38;3.20;;;12.20;99.90;;;;;;5094096;28;20181;-52
2023/10/30 02:27:45;;;;;;;9.25;2.25;;;12.10;99.90;;;;;;5094308;28;20173;-49
2023/10/30 02:30:11;;;;;;;10.20;3.00;;;12.00;99.90;;;;;;5093965;28;20188;-48
2023/10/30 02:32:42;;;;;;;6.65;2.03;;;12.00;99.90;;;;;;5093692;28;20248;-49
2023/10/30 02:35:15;;;;;;;7.97;1.90;;;12.00;99.90;;;;;;5093808;28;20644;-59
2023/10/30 02:37:41;;;;;;;8.90;2.40;;;12.00;99.90;;;;;;5094080;28;20181;-47
2023/10/30 02:40:08;;;;;;;9.32;2.10;;;11.90;99.90;;;;;;5093830;28;20169;-49
2023/10/30 02:42:33;;;;;;;13.73;2.08;;;12.00;99.90;;;;;;5093776;28;20227;-49
2023/10/30 02:44:59;;;;;;;9.68;2.10;;;12.00;99.90;;;;;;5092536;28;20254;-48
2023/10/30 02:47:25;;;;;;;8.20;2.25;;;11.90;99.90;;;;;;5093897;28;20228;-48
2023/10/30 02:49:51;;;;;;;6.45;1.98;;;11.90;99.90;;;;;;5093815;28;20173;-51
2023/10/30 02:52:18;;;;;;;5.05;2.00;;;11.90;99.90;;;;;;5093883;28;20174;-49
2023/10/30 02:54:44;;;;;;;7.80;2.17;;;11.90;99.90;;;;;;5093396;28;20201;-48
2023/10/30 02:57:09;;;;;;;7.32;2.03;;;11.90;99.90;;;;;;5093557;28;20519;-47
2023/10/30 02:59:35;;;;;;;10.45;2.25;;;11.90;99.90;;;;;;5093369;28;20264;-49
2023/10/30 03:02:00;;;;;;;8.40;2.22;;;11.90;99.90;;;;;;5093321;28;20162;-49
2023/10/30 03:04:26;;;;;;;6.72;1.90;;;11.90;99.90;;;;;;5093357;28;20165;-47
2023/10/30 03:06:52;;;;;;;8.77;2.22;;;11.90;99.90;;;;;;5093745;28;20204;-48
2023/10/30 03:09:17;;;;;;;12.88;2.33;;;11.90;99.90;;;;;;5093258;28;20170;-48
2023/10/30 03:11:43;;;;;;;11.55;2.13;;;11.90;99.90;;;;;;5093222;28;20201;-48
2023/10/30 03:14:08;;;;;;;15.68;2.40;;;11.90;99.90;;;;;;5093083;28;20228;-48
2023/10/30 03:16:34;;;;;;;9.27;2.08;;;11.90;99.90;;;;;;5093095;28;20169;-49
2023/10/30 03:18:59;;;;;;;5.85;2.20;;;12.00;99.90;;;;;;5093006;28;20252;-48
2023/10/30 03:21:25;;;;;;;7.03;1.98;;;12.00;99.90;;;;;;5093487;28;20200;-60
2023/10/30 03:23:51;;;;;;;10.60;2.47;;;11.90;99.90;;;;;;5093498;28;20578;-61
2023/10/30 03:26:16;;;;;;;6.22;1.85;;;11.90;99.90;;;;;;5092974;28;20166;-61
2023/10/30 03:28:42;;;;;;;11.05;1.92;;;11.90;99.90;;;;;;5093216;28;20173;-61
2023/10/30 03:31:09;;;;;;;4.97;1.90;;;11.90;99.90;;;;;;5092830;28;20168;-61
2023/10/30 03:33:35;;;;;;;8.10;1.92;;;12.00;99.90;;;;;;5092966;28;20216;-61
2023/10/30 03:36:02;;;;;;;7.35;1.92;;;11.90;99.90;;;;;;5092767;28;20173;-60
2023/10/30 03:38:27;;;;;;;8.00;2.53;;;12.00;99.90;;;;;;5092951;28;20203;-61
2023/10/30 03:40:53;;;;;;;5.72;1.55;;;12.00;99.90;;;;;;5093127;28;20190;-61
2023/10/30 03:43:19;;;;;;;10.82;2.17;;;12.00;99.90;;;;;;5092312;28;20590;-62
2023/10/30 03:45:44;;;;;;;8.75;2.17;;;12.00;99.90;;;;;;5092312;28;20538;-60
2023/10/30 03:48:10;;;;;;;6.13;2.10;;;12.10;99.90;;;;;;5092357;28;20240;-60
2023/10/30 03:50:35;;;;;;;8.38;2.28;;;12.10;99.90;;;;;;5092441;28;20256;-59
2023/10/30 03:53:01;;;;;;;6.95;2.30;;;12.10;99.90;;;;;;5092368;28;20189;-56
2023/10/30 03:55:26;;;;;;;9.13;2.28;;;12.10;99.90;;;;;;5092535;28;20176;-60
2023/10/30 03:57:52;;;;;;;7.97;1.70;;;12.10;99.90;;;;;;5092783;28;20173;-60
2023/10/30 04:00:18;;;;;;;8.43;1.95;;;12.10;99.90;;;;;;5092318;28;20174;-56
2023/10/30 04:02:43;;;;;;;7.70;2.35;;;12.00;99.90;;;;;;5092213;28;20157;-54
2023/10/30 04:05:09;;;;;;;17.13;3.78;;;12.10;99.90;;;;;;5082737;28;20222;-55
2023/10/30 04:07:35;;;;;;;8.07;1.95;;;12.10;99.90;;;;;;5071620;28;20158;-48
2023/10/30 04:10:01;;;;;;;6.03;1.83;;;12.10;99.90;;;;;;5072044;28;20181;-48
2023/10/30 04:12:26;;;;;;;6.88;1.85;;;12.10;99.90;;;;;;5071905;28;20166;-49
2023/10/30 04:14:52;;;;;;;9.07;2.08;;;12.10;99.90;;;;;;5072169;28;20206;-48
2023/10/30 04:17:17;;;;;;;10.57;2.28;;;12.00;99.90;;;;;;5071730;28;20165;-48
2023/10/30 04:19:43;;;;;;;5.45;1.52;;;12.10;99.90;;;;;;5071748;28;20173;-48
2023/10/30 04:22:09;;;;;;;7.70;2.55;;;12.10;99.90;;;;;;5071687;28;20647;-48
2023/10/30 04:24:34;;;;;;;9.82;2.28;;;12.10;99.90;;;;;;5071679;28;20162;-48
2023/10/30 04:27:00;;;;;;;8.10;1.88;;;12.00;99.90;;;;;;5071611;28;20205;-48
2023/10/30 04:29:26;;;;;;;6.90;3.15;;;12.00;99.90;;;;;;5071544;28;20655;-48
2023/10/30 04:31:52;;;;;;;11.15;2.65;;;12.10;99.90;;;;;;5071968;28;20249;-48
2023/10/30 04:34:19;;;;;;;7.68;2.35;;;12.00;99.90;;;;;;5071437;28;20210;-50
2023/10/30 04:36:45;;;;;;;7.85;1.83;;;12.00;99.90;;;;;;5071796;28;20572;-48
2023/10/30 04:39:11;;;;;;;8.15;2.20;;;12.00;99.90;;;;;;5071742;28;20303;-48
2023/10/30 04:41:37;;;;;;;6.93;1.60;;;12.00;99.90;;;;;;5071677;28;20177;-48
2023/10/30 04:44:03;;;;;;;8.73;2.15;;;11.90;99.90;;;;;;5071330;28;20537;-48
2023/10/30 04:46:28;;;;;;;4.80;1.83;;;11.90;99.90;;;;;;5071303;28;20166;-48
2023/10/30 04:48:54;;;;;;;6.50;1.85;;;11.90;99.90;;;;;;5071646;28;20225;-49
2023/10/30 04:51:20;;;;;;;4.75;1.25;;;11.90;99.90;;;;;;5071320;28;20173;-48
2023/10/30 04:53:46;;;;;;;6.97;1.80;;;11.90;99.90;;;;;;5071188;28;20237;-50
2023/10/30 04:56:11;;;;;;;5.60;2.17;;;11.90;99.90;;;;;;5075535;28;20247;-49
2023/10/30 04:58:37;;;;;;;8.10;2.10;;;11.90;99.90;;;;;;5078200;28;20180;-48
2023/10/30 05:01:08;;;;;;;9.35;2.70;;;11.90;99.90;;;;;;5077993;28;20174;-48
2023/10/30 05:03:35;;;;;;;7.78;2.00;;;11.80;99.90;;;;;;5078209;28;20260;-48
2023/10/30 05:06:04;;;;;;;10.27;2.22;;;11.80;99.90;;;;;;5077851;28;20174;-48
2023/10/30 05:08:30;;;;;;;7.75;1.60;;;11.80;99.90;;;;;;5077883;28;20170;-49
2023/10/30 05:10:55;;;;;;;7.75;2.10;;;11.80;99.90;;;;;;5078010;28;20246;-48
2023/10/30 05:13:21;;;;;;;8.48;2.58;;;11.80;99.90;;;;;;5078064;28;20272;-48
2023/10/30 05:15:47;;;;;;;6.55;2.28;;;11.80;99.90;;;;;;5078105;28;20261;-48
2023/10/30 05:18:21;;;;;;;13.25;5.05;;;11.80;99.90;;;;;;5077761;28;20165;-49
2023/10/30 05:20:46;;;;;;;15.35;5.85;;;11.80;99.90;;;;;;5078025;28;20188;-48
2023/10/30 05:23:12;;;;;;;13.98;4.93;;;11.80;99.90;;;;;;5077758;28;20166;-48
2023/10/30 05:25:38;;;;;;;14.50;4.88;;;11.70;99.90;;;;;;5077721;28;20174;-48
2023/10/30 05:28:03;;;;;;;21.13;8.93;;;11.80;99.90;;;;;;5076094;28;20212;-48
2023/10/30 05:30:30;;;;;;;14.10;4.20;;;11.70;99.90;;;;;;5077989;28;20528;-51
2023/10/30 05:32:56;;;;;;;8.52;3.05;;;11.70;99.90;;;;;;5077760;28;20182;-48
2023/10/30 05:35:21;;;;;;;6.35;2.03;;;11.60;99.90;;;;;;5078368;28;20181;-48
2023/10/30 05:37:47;;;;;;;7.85;3.58;;;11.60;99.90;;;;;;5077610;28;20659;-48
2023/10/30 05:40:13;;;;;;;9.38;2.40;;;11.60;99.90;;;;;;5077579;28;20174;-49
2023/10/30 05:42:38;;;;;;;9.30;3.15;;;11.50;99.90;;;;;;5077631;28;20161;-55
2023/10/30 05:45:04;;;;;;;10.90;3.15;;;11.50;99.90;;;;;;5077579;28;20162;-51
2023/10/30 05:47:31;;;;;;;10.70;3.13;;;11.50;99.90;;;;;;5077432;28;20214;-54
2023/10/30 05:49:57;;;;;;;8.95;2.70;;;11.50;99.90;;;;;;5077709;28;20260;-53
2023/10/30 05:52:22;;;;;;;12.85;2.85;;;11.50;99.90;;;;;;5077872;28;20243;-48
2023/10/30 05:54:48;;;;;;;9.95;2.97;;;11.40;99.90;;;;;;5077408;28;20197;-58
2023/10/30 05:57:15;;;;;;;6.70;2.65;;;11.50;99.90;;;;;;5077241;28;20166;-57
2023/10/30 05:59:41;;;;;;;10.40;3.88;;;11.50;99.90;;;;;;5077642;28;20173;-55
2023/10/30 06:02:06;;;;;;;13.32;5.25;;;11.50;99.90;;;;;;5077258;28;20178;-50
2023/10/30 06:04:38;;;;;;;14.00;2.72;;;11.50;99.90;;;;;;5076038;28;20261;-53
2023/10/30 06:07:03;;;;;;;8.70;2.30;;;11.50;99.90;;;;;;5075679;28;20162;-49
2023/10/30 06:09:30;;;;;;;11.13;2.45;;;11.50;99.90;;;;;;5074211;28;20162;-50
2023/10/30 06:11:55;;;;;;;7.80;1.92;;;11.60;99.90;;;;;;5074400;28;20539;-50
2023/10/30 06:14:21;;;;;;;7.35;2.22;;;11.60;99.90;;;;;;5074486;28;20199;-49
2023/10/30 06:16:48;;;;;;;9.93;2.72;;;11.60;99.90;;;;;;5072445;28;20652;-48
2023/10/30 06:19:14;;;;;;;11.52;2.28;;;11.60;99.90;;;;;;5073958;28;20644;-49
2023/10/30 06:21:40;;;;;;;11.30;2.60;;;11.60;99.90;;;;;;5073990;28;20177;-49
2023/10/30 06:24:07;;;;;;;9.93;2.63;;;11.60;99.90;;;;;;5073984;28;20173;-49
2023/10/30 06:26:32;;;;;;;10.85;2.55;;;11.50;99.90;;;;;;5071922;28;20162;-49
2023/10/30 06:28:58;;;;;;;8.95;2.83;;;11.60;99.90;;;;;;5071846;28;20641;-55
2023/10/30 06:31:23;;;;;;;5.18;2.15;;;11.60;99.90;;;;;;5072419;28;20195;-53
2023/10/30 06:33:49;;;;;;;8.57;3.38;;;11.50;99.90;;;;;;5071644;28;20208;-58
2023/10/30 06:36:15;;;;;;;7.75;2.88;;;11.50;99.90;;;;;;5071846;28;20173;-60
2023/10/30 06:38:40;;;;;;;8.38;2.65;;;11.50;99.90;;;;;;5072224;28;20162;-55
2023/10/30 06:41:06;;;;;;;10.20;2.80;;;11.50;99.90;;;;;;5072985;28;20537;-51
2023/10/30 06:43:32;;;;;;;8.68;2.15;;;11.50;99.90;;;;;;5073461;28;20170;-60
2023/10/30 06:46:01;;;;;;;10.05;3.00;;;11.50;99.90;;;;;;5073528;28;20169;-56
2023/10/30 06:48:27;;;;;;;10.15;2.60;;;11.50;99.90;;;;;;5073247;28;20217;-59
2023/10/30 06:50:54;;;;;;;14.02;4.20;;;11.50;99.90;;;;;;5073807;28;20162;-55
2023/10/30 06:53:19;;;;;;;9.85;4.00;;;11.50;99.90;;;;;;5073715;28;20690;-56
2023/10/30 06:55:45;;;;;;;10.43;2.60;;;11.50;99.90;;;;;;5073214;28;20178;-58
2023/10/30 06:58:11;;;;;;;14.55;3.55;;;11.50;99.90;;;;;;5073203;28;20166;-60
2023/10/30 07:00:37;;;;;;;11.45;4.85;;;11.50;99.90;;;;;;5073217;28;20210;-55
2023/10/30 07:03:03;;;;;;;9.80;3.05;;;11.50;99.90;;;;;;5073133;28;20572;-57
2023/10/30 07:05:28;;;;;;;7.53;2.55;;;11.60;99.90;;;;;;5073107;28;20193;-57
2023/10/30 07:07:54;;;;;;;11.43;2.75;;;11.60;99.90;;;;;;5073806;28;20166;-51
2023/10/30 07:10:20;;;;;;;10.20;2.30;;;10.30;99.90;;;;;;5073532;28;20166;-52
2023/10/30 07:12:45;;;;;;;7.80;2.20;;;11.70;99.90;;;;;;5071619;28;20294;-49
2023/10/30 07:15:11;;;;;;;10.30;2.20;;;11.70;99.90;;;;;;5072855;28;20189;-49
2023/10/30 07:17:37;;;;;;;14.88;2.75;;;11.70;99.90;;;;;;5072890;28;20162;-58
2023/10/30 07:20:03;;;;;;;15.00;3.83;;;11.70;99.90;;;;;;5071982;28;20178;-60
2023/10/30 07:22:29;;;;;;;8.93;2.72;;;11.70;99.90;;;;;;5073014;28;20166;-60
2023/10/30 07:24:56;;;;;;;8.10;2.47;;;11.70;99.90;;;;;;5072733;28;20668;-54
2023/10/30 07:27:22;;;;;;;12.32;3.40;;;11.70;99.90;;;;;;5073105;28;20672;-60
2023/10/30 07:29:47;;;;;;;10.68;2.17;;;11.80;99.90;;;;;;5072629;28;20182;-60
2023/10/30 07:32:13;;;;;;;6.53;2.30;;;11.80;99.90;;;;;;5072426;28;20245;-60
2023/10/30 07:34:40;;;;;;;10.77;3.45;;;12.70;99.90;;;;;;5072426;28;20276;-60
2023/10/30 07:37:06;;;;;;;22.75;6.55;;;12.00;99.90;;;;;;5072472;28;20622;-60
2023/10/30 07:39:32;;;;;;;19.85;7.63;;;12.00;99.90;;;;;;5072415;28;20166;-60
2023/10/30 07:41:57;;;;;;;20.40;4.95;;;12.00;99.90;;;;;;5072407;28;20166;-60
2023/10/30 07:44:23;;;;;;;9.98;4.47;;;12.00;99.90;;;;;;5072797;28;20661;-60
2023/10/30 07:46:48;;;;;;;30.90;9.18;;;12.00;99.90;;;;;;5072198;28;20633;-60
2023/10/30 07:49:14;;;;;;;17.48;5.90;;;12.20;99.90;;;;;;5072058;28;20232;-60
2023/10/30 07:51:39;;;;;;;16.30;5.43;;;12.20;99.90;;;;;;5072174;28;20173;-59
2023/10/30 07:54:06;;;;;;;17.50;4.38;;;12.30;99.90;;;;;;5072082;28;20209;-61
2023/10/30 07:56:31;;;;;;;8.43;3.45;;;12.30;99.90;;;;;;5072091;28;20158;-60
2023/10/30 07:58:57;;;;;;;12.65;4.20;;;12.40;99.90;;;;;;5072292;28;20702;-60
2023/10/30 08:01:23;;;;;;;16.88;5.25;;;12.40;99.90;;;;;;5072420;28;20656;-53
2023/10/30 08:03:49;;;;;;;12.32;5.00;;;12.50;99.90;;;;;;5071940;28;20223;-55
2023/10/30 08:06:14;;;;;;;15.75;4.70;;;12.50;99.90;;;;;;5071919;28;20177;-53
2023/10/30 08:08:40;;;;;;;20.40;7.38;;;12.50;99.90;;;;;;5071913;28;20158;-55
2023/10/30 08:11:05;;;;;;;16.98;7.38;;;12.60;99.90;;;;;;5072124;28;20174;-52
2023/10/30 08:13:31;;;;;;;10.63;3.70;;;12.60;99.90;;;;;;5071757;28;20197;-55
2023/10/30 08:15:57;;;;;;;11.32;4.22;;;12.70;99.90;;;;;;5071698;28;20513;-54
2023/10/30 08:18:22;;;;;;;10.52;4.22;;;12.70;99.90;;;;;;5072432;28;20170;-53
2023/10/30 08:20:48;;;;;;;10.98;4.18;;;12.70;99.90;;;;;;5071644;28;20679;-53
2023/10/30 08:23:15;;;;;;;8.35;3.38;;;12.80;99.90;;;;;;5071567;28;20528;-54
2023/10/30 08:25:41;;;;;;;11.65;3.55;;;12.80;99.90;;;;;;5071907;28;20230;-53
2023/10/30 08:28:06;;;;;;;11.77;4.35;;;12.80;99.90;;;;;;5071624;28;20637;-54
2023/10/30 08:30:32;;;;;;;15.75;4.93;;;12.90;99.90;;;;;;5071171;28;20170;-54
2023/10/30 08:32:57;;;;;;;11.68;4.25;;;13.00;99.90;;;;;;5071396;28;20162;-54
2023/10/30 08:35:23;;;;;;;8.13;4.20;;;13.00;99.90;;;;;;5072234;28;20174;-56
2023/10/30 08:37:49;;;;;;;8.32;4.03;;;13.00;99.90;;;;;;5071519;28;20621;-56
2023/10/30 08:40:14;;;;;;;14.75;5.00;;;13.10;99.90;;;;;;5071470;28;20593;-55
2023/10/30 08:42:40;;;;;;;11.18;4.05;;;13.10;99.90;;;;;;5071648;28;20174;-55
2023/10/30 08:45:07;;;;;;;10.05;4.68;;;13.20;99.90;;;;;;5071513;28;20178;-60
2023/10/30 08:47:32;;;;;;;6.63;3.13;;;13.20;99.90;;;;;;5071266;28;20267;-51
2023/10/30 08:49:58;;;;;;;4.85;2.42;;;13.20;99.90;;;;;;5071330;28;20170;-59
2023/10/30 08:52:24;;;;;;;9.40;3.55;;;13.20;99.90;;;;;;5071772;28;20240;-60
2023/10/30 08:54:49;;;;;;;6.97;2.35;;;12.30;99.90;;;;;;5071525;28;20209;-51
2023/10/30 08:57:19;;;;;;;3.30;1.25;;;13.40;99.90;;;;;;5071278;28;20177;-51
2023/10/30 08:59:45;;;;;;;4.10;1.60;;;13.40;99.90;;;;;;5071290;28;20162;-50
2023/10/30 09:02:10;;;;;;;4.55;1.95;;;13.50;99.90;;;;;;5071177;28;20170;-50
2023/10/30 09:04:36;;;;;;;5.18;1.60;;;13.50;99.90;;;;;;5071244;28;20162;-60
2023/10/30 09:07:02;;;;;;;2.88;1.52;;;13.60;99.90;;;;;;5071498;28;20304;-49
2023/10/30 09:09:28;;;;;;;4.30;1.35;;;13.60;99.90;;;;;;5071218;28;20178;-53
2023/10/30 09:11:53;;;;;;;6.93;2.55;;;13.60;99.90;;;;;;5071529;28;20177;-49
2023/10/30 09:14:19;;;;;;;3.78;1.45;;;13.70;99.90;;;;;;5071796;28;20214;-48
2023/10/30 09:16:45;;;;;;;3.55;0.93;;;13.70;99.90;;;;;;5071034;28;20689;-49
2023/10/30 09:19:10;;;;;;;2.85;1.52;;;13.70;99.90;;;;;;5071010;28;20174;-49
2023/10/30 09:21:36;;;;;;;3.03;1.23;;;13.70;99.90;;;;;;5071050;28;20197;-49
2023/10/30 09:24:02;;;;;;;2.78;1.65;;;13.70;99.90;;;;;;5071105;28;20283;-50
2023/10/30 09:26:28;;;;;;;5.75;1.77;;;13.70;99.90;;;;;;5070994;28;20162;-52
2023/10/30 09:28:54;;;;;;;4.05;1.77;;;13.90;99.90;;;;;;5071508;28;20177;-48
2023/10/30 09:31:20;;;;;;;4.97;2.15;;;13.90;99.90;;;;;;5071561;28;20217;-48
2023/10/30 09:33:47;;;;;;;5.60;2.10;;;13.90;99.90;;;;;;5071091;28;20216;-49
2023/10/30 09:36:13;;;;;;;6.28;2.53;;;14.00;99.90;;;;;;5071185;28;20167;-49
2023/10/30 09:38:38;;;;;;;6.20;1.80;;;14.00;99.90;;;;;;5070912;28;20223;-48
2023/10/30 09:41:05;;;;;;;4.63;2.10;;;14.10;99.90;;;;;;5070932;28;20170;-60
2023/10/30 09:43:33;;;;;;;5.95;2.15;;;14.20;99.90;;;;;;5073464;28;20170;-60
2023/10/30 09:46:01;;;;;;;4.20;2.03;;;14.30;99.90;;;;;;5074839;28;20177;-61
2023/10/30 09:48:28;;;;;;;9.50;4.53;;;14.40;99.90;;;;;;5074399;28;20231;-60
2023/10/30 09:50:54;;;;;;;3.60;1.88;;;14.50;99.90;;;;;;5074805;28;20166;-48
2023/10/30 09:53:20;;;;;;;6.68;2.38;;;14.50;99.90;;;;;;5073481;28;20571;-60
2023/10/30 09:55:47;;;;;;;4.18;1.75;;;14.50;99.90;;;;;;5074610;28;20181;-57
2023/10/30 09:58:15;;;;;;;1.95;1.20;;;14.60;99.90;;;;;;5074374;28;20166;-59
2023/10/30 10:00:44;;;;;;;7.57;2.80;;;14.50;99.90;;;;;;5074244;28;20178;-60
2023/10/30 10:03:10;;;;;;;2.72;1.10;;;14.50;99.90;;;;;;5074196;28;20618;-59
2023/10/30 10:05:36;;;;;;;5.15;1.40;;;14.50;99.90;;;;;;5074195;28;20174;-57
2023/10/30 10:08:01;;;;;;;24.75;10.23;;;14.50;99.90;;;;;;5074231;28;20190;-57
2023/10/30 10:10:27;;;;;;;15.32;6.18;;;14.60;99.90;;;;;;5074144;28;20610;-58
2023/10/30 10:12:55;;;;;;;5.82;2.95;;;14.60;99.90;;;;;;5074836;28;20291;-58
2023/10/30 10:15:21;;;;;;;2.92;1.45;;;14.60;99.90;;;;;;5074499;28;20174;-56
2023/10/30 10:17:49;;;;;;;4.50;2.72;;;14.70;99.90;;;;;;5074250;28;20571;-55
2023/10/30 10:20:16;;;;;;;4.65;2.08;;;14.70;99.90;;;;;;5074173;28;20223;-59
2023/10/30 10:22:42;;;;;;;12.70;7.57;;;14.80;99.90;;;;;;5074121;28;20173;-60
2023/10/30 10:25:10;;;;;;;2.28;1.75;;;14.80;99.90;;;;;;5073875;28;20166;-58
2023/10/30 10:27:40;;;;;;;2.35;1.75;;;14.80;99.90;;;;;;5074071;28;20570;-59
2023/10/30 10:30:07;;;;;;;3.92;1.30;;;14.80;99.90;;;;;;5074063;28;20169;-57
2023/10/30 10:32:33;;;;;;;7.70;4.47;;;14.80;99.90;;;;;;5073751;28;20173;-60
2023/10/30 10:35:05;;;;;;;1.70;1.30;;;14.90;99.90;;;;;;5072920;28;20665;-60
2023/10/30 10:37:31;;;;;;;27.60;17.75;;;15.00;99.90;;;;;;5073923;28;20251;-57
2023/10/30 10:39:57;;;;;;;14.40;8.68;;;15.10;99.90;;;;;;5073190;28;20516;-60
2023/10/30 10:42:24;;;;;;;7.15;3.22;;;15.20;99.90;;;;;;5073702;28;20162;-55
2023/10/30 10:44:51;;;;;;;12.23;7.18;;;15.30;99.90;;;;;;5073627;28;20182;-57
2023/10/30 10:47:18;;;;;;;3.72;3.33;;;15.40;99.90;;;;;;5073261;28;20272;-59
2023/10/30 10:49:44;;;;;;;9.65;6.32;;;15.30;99.90;;;;;;5073377;28;20181;-57
2023/10/30 10:52:13;;;;;;;7.97;5.43;;;15.30;99.90;;;;;;5073358;28;20227;-57
2023/10/30 10:54:44;;;;;;;14.63;10.00;;;15.30;99.90;;;;;;5073279;28;20297;-60
2023/10/30 10:57:17;;;;;;;9.98;4.53;;;15.30;99.90;;;;;;5073271;28;20166;-59
2023/10/30 10:59:45;;;;;;;4.90;3.78;;;15.20;99.90;;;;;;5073139;28;20169;-60
2023/10/30 11:02:21;;;;;;;3.05;1.40;;;15.20;99.90;;;;;;5073441;28;20185;-58
2023/10/30 11:04:51;;;;;;;10.70;6.55;;;15.00;99.90;;;;;;5073413;28;20170;-60
2023/10/30 11:07:32;;;;;;;8.38;4.15;;;14.90;99.90;;;;;;5073341;28;20173;-59
2023/10/30 11:10:09;;;;;;;4.47;1.73;;;14.80;99.90;;;;;;5073048;28;20166;-59
2023/10/30 11:12:49;;;;;;;53.78;31.60;;;14.80;99.90;;;;;;5073186;28;20176;-58
2023/10/30 11:15:25;;;;;;;20.83;13.02;;;14.70;99.90;;;;;;5072875;28;20679;-59
2023/10/30 11:18:21;;;;;;;26.50;20.73;;;14.70;99.90;;;;;;5073226;28;20589;-59
2023/10/30 11:20:52;;;;;;;19.05;14.20;;;14.60;99.90;;;;;;5072770;28;20174;-60
2023/10/30 11:23:44;;;;;;;7.72;6.43;;;14.60;99.90;;;;;;5072711;28;20166;-59
2023/10/30 11:26:10;;;;;;;3.22;2.60;;;14.60;99.90;;;;;;5072539;28;20533;-59
2023/10/30 11:28:37;;;;;;;2.83;1.50;;;14.50;99.90;;;;;;5072735;28;20180;-60
2023/10/30 11:31:08;;;;;;;2.97;1.25;;;14.50;99.90;;;;;;5072529;28;20261;-59
2023/10/30 11:33:35;;;;;;;3.38;3.08;;;14.50;99.90;;;;;;5072347;28;20622;-60
2023/10/30 11:36:19;;;;;;;2.95;2.20;;;14.40;99.90;;;;;;5072488;28;20181;-59
2023/10/30 11:38:57;;;;;;;2.55;1.20;;;14.50;99.90;;;;;;5072610;28;20536;-59
2023/10/30 11:41:24;;;;;;;3.50;2.22;;;14.50;99.90;;;;;;5072752;28;20629;-60
2023/10/30 11:43:50;;;;;;;3.88;2.47;;;14.60;99.90;;;;;;5072737;28;20166;-60
2023/10/30 11:46:18;;;;;;;4.10;2.95;;;14.60;99.90;;;;;;5072272;28;20170;-59
2023/10/30 11:48:45;;;;;;;2.83;2.20;;;14.80;99.90;;;;;;5071842;28;20771;-59
2023/10/30 11:51:12;;;;;;;4.03;2.58;;;14.90;99.90;;;;;;5072452;28;20196;-59
2023/10/30 11:53:42;;;;;;;2.83;1.50;;;15.00;99.90;;;;;;5072062;28;20201;-60
2023/10/30 11:56:08;;;;;;;3.20;1.45;;;15.10;99.90;;;;;;5072364;28;20177;-61
2023/10/30 11:58:34;;;;;;;1.52;1.42;;;15.10;99.90;;;;;;5070805;28;20694;-61
2023/10/30 12:01:01;;;;;;;2.05;1.60;;;15.10;99.90;;;;;;5072074;28;20166;-61
2023/10/30 12:03:26;;;;;;;1.83;1.23;;;15.10;99.90;;;;;;5071923;28;20166;-60
2023/10/30 12:05:53;;;;;;;3.05;1.75;;;15.00;99.90;;;;;;5071769;28;20214;-61
2023/10/30 12:08:18;;;;;;;4.18;1.50;;;15.00;99.90;;;;;;5072466;28;20174;-58
2023/10/30 12:10:48;;;;;;;7.32;1.92;;;15.00;99.90;;;;;;5072000;28;20200;-61
2023/10/30 12:13:13;;;;;;;3.67;2.63;;;15.10;99.90;;;;;;5071720;28;20170;-60
2023/10/30 12:15:40;;;;;;;2.42;1.80;;;15.20;99.90;;;;;;5071840;28;20304;-60
2023/10/30 12:18:06;;;;;;;3.53;2.08;;;15.20;99.90;;;;;;5072116;28;20227;-58
2023/10/30 12:20:32;;;;;;;4.13;2.25;;;15.30;99.90;;;;;;5071813;28;20522;-59
2023/10/30 12:22:58;;;;;;;2.78;1.92;;;15.40;99.90;;;;;;5071723;28;20178;-61
2023/10/30 12:25:23;;;;;;;4.32;1.70;;;15.50;99.90;;;;;;5072140;28;20177;-47
2023/10/30 12:27:49;;;;;;;3.17;1.80;;;15.50;99.90;;;;;;5072193;28;20227;-53
2023/10/30 12:30:16;;;;;;;2.22;1.80;;;15.50;99.90;;;;;;5071540;28;20511;-59
2023/10/30 12:32:51;;;;;;;5.13;1.90;;;15.50;99.90;;;;;;5071494;28;20165;-58
2023/10/30 12:35:18;;;;;;;2.08;1.63;;;15.50;99.90;;;;;;5072027;28;20532;-57
2023/10/30 12:37:43;;;;;;;6.00;1.80;;;15.50;99.90;;;;;;5071222;28;20166;-57
2023/10/30 12:40:13;;;;;;;3.65;2.05;;;15.50;99.90;;;;;;5071557;28;20249;-58